sensor_id;sensor_type;location;lat;lon;timestamp;pressure;altitude;pressure_sealevel;temperature;humidity
35649;BME280;21768;48.562;13.414;2023-03-26T00:00:56;96809.06;;;9.04;66.45
35649;BME280;21768;48.562;13.414;2023-03-26T00:03:22;96804.22;;;9.07;66.99
35649;BME280;21768;48.562;13.414;2023-03-26T00:05:47;96807.00;;;9.12;66.62
35649;BME280;21768;48.562;13.414;2023-03-26T00:08:14;96814.75;;;9.15;67.04
35649;BME280;21768;48.562;13.414;2023-03-26T00:10:41;96810.66;;;9.17;67.44
35649;BME280;21768;48.562;13.414;2023-03-26T00:13:08;96806.88;;;9.24;66.51
35649;BME280;21768;48.562;13.414;2023-03-26T00:15:35;96813.81;;;9.28;66.50
35649;BME280;21768;48.562;13.414;2023-03-26T00:18:01;96801.94;;;9.25;66.58
35649;BME280;21768;48.562;13.414;2023-03-26T00:20:29;96811.50;;;9.31;65.78
35649;BME280;21768;48.562;13.414;2023-03-26T00:22:57;96808.88;;;9.29;66.17
35649;BME280;21768;48.562;13.414;2023-03-26T00:25:26;96809.38;;;9.24;66.83
35649;BME280;21768;48.562;13.414;2023-03-26T00:27:51;96810.16;;;9.23;66.86
35649;BME280;21768;48.562;13.414;2023-03-26T00:30:16;96797.47;;;9.21;67.36
35649;BME280;21768;48.562;13.414;2023-03-26T00:32:42;96806.69;;;9.20;67.24
35649;BME280;21768;48.562;13.414;2023-03-26T00:35:08;96798.34;;;9.21;67.39
35649;BME280;21768;48.562;13.414;2023-03-26T00:37:33;96800.09;;;9.23;67.34
35649;BME280;21768;48.562;13.414;2023-03-26T00:39:59;96793.41;;;9.23;67.25
35649;BME280;21768;48.562;13.414;2023-03-26T00:42:33;96791.56;;;9.20;67.42
35649;BME280;21768;48.562;13.414;2023-03-26T00:44:59;96784.72;;;9.18;67.15
35649;BME280;21768;48.562;13.414;2023-03-26T00:47:26;96781.50;;;9.20;67.43
35649;BME280;21768;48.562;13.414;2023-03-26T00:49:52;96785.00;;;9.23;67.25
35649;BME280;21768;48.562;13.414;2023-03-26T00:52:17;96791.94;;;9.27;67.19
35649;BME280;21768;48.562;13.414;2023-03-26T00:54:44;96788.84;;;9.31;66.68
35649;BME280;21768;48.562;13.414;2023-03-26T00:57:10;96788.06;;;9.32;66.97
35649;BME280;21768;48.562;13.414;2023-03-26T00:59:37;96784.88;;;9.34;66.80
35649;BME280;21768;48.562;13.414;2023-03-26T01:02:03;96789.03;;;9.34;66.86
35649;BME280;21768;48.562;13.414;2023-03-26T01:04:31;96774.69;;;9.33;67.37
35649;BME280;21768;48.562;13.414;2023-03-26T01:07:14;96772.19;;;9.33;67.03
35649;BME280;21768;48.562;13.414;2023-03-26T01:09:44;96768.91;;;9.34;66.32
35649;BME280;21768;48.562;13.414;2023-03-26T01:12:16;96770.81;;;9.38;66.47
35649;BME280;21768;48.562;13.414;2023-03-26T01:14:44;96776.63;;;9.37;67.01
35649;BME280;21768;48.562;13.414;2023-03-26T01:17:11;96780.00;;;9.37;66.33
35649;BME280;21768;48.562;13.414;2023-03-26T01:22:33;96771.59;;;9.37;65.83
35649;BME280;21768;48.562;13.414;2023-03-26T01:25:00;96774.88;;;9.36;65.32
35649;BME280;21768;48.562;13.414;2023-03-26T01:38:32;96781.97;;;9.56;65.09
35649;BME280;21768;48.562;13.414;2023-03-26T01:41:16;96783.88;;;9.60;64.59
35649;BME280;21768;48.562;13.414;2023-03-26T01:43:50;96777.97;;;9.60;64.55
35649;BME280;21768;48.562;13.414;2023-03-26T01:46:17;96773.03;;;9.61;64.41
35649;BME280;21768;48.562;13.414;2023-03-26T01:48:45;96771.28;;;9.60;64.56
35649;BME280;21768;48.562;13.414;2023-03-26T01:51:12;96768.78;;;9.60;64.90
35649;BME280;21768;48.562;13.414;2023-03-26T01:53:42;96773.13;;;9.63;65.31
35649;BME280;21768;48.562;13.414;2023-03-26T01:56:32;96771.47;;;9.63;64.63
35649;BME280;21768;48.562;13.414;2023-03-26T02:07:42;96762.50;;;9.68;64.34
35649;BME280;21768;48.562;13.414;2023-03-26T02:10:28;96765.81;;;9.67;64.25
35649;BME280;21768;48.562;13.414;2023-03-26T02:12:55;96774.31;;;9.69;63.97
35649;BME280;21768;48.562;13.414;2023-03-26T02:15:20;96773.28;;;9.66;63.95
35649;BME280;21768;48.562;13.414;2023-03-26T02:17:46;96780.03;;;9.67;64.10
35649;BME280;21768;48.562;13.414;2023-03-26T02:20:14;96762.41;;;9.67;64.17
35649;BME280;21768;48.562;13.414;2023-03-26T02:22:43;96765.88;;;9.69;64.45
35649;BME280;21768;48.562;13.414;2023-03-26T02:25:13;96773.72;;;9.73;64.13
35649;BME280;21768;48.562;13.414;2023-03-26T02:27:39;96767.91;;;9.74;64.43
35649;BME280;21768;48.562;13.414;2023-03-26T02:30:07;96768.09;;;9.77;63.93
35649;BME280;21768;48.562;13.414;2023-03-26T02:32:33;96771.19;;;9.73;64.42
35649;BME280;21768;48.562;13.414;2023-03-26T02:34:59;96769.56;;;9.74;64.61
35649;BME280;21768;48.562;13.414;2023-03-26T02:37:25;96762.50;;;9.68;64.45
35649;BME280;21768;48.562;13.414;2023-03-26T02:39:50;96766.66;;;9.68;64.94
35649;BME280;21768;48.562;13.414;2023-03-26T02:42:16;96760.75;;;9.67;65.35
35649;BME280;21768;48.562;13.414;2023-03-26T02:44:41;96759.03;;;9.66;65.16
35649;BME280;21768;48.562;13.414;2023-03-26T02:47:06;96750.53;;;9.64;65.27
35649;BME280;21768;48.562;13.414;2023-03-26T02:49:32;96754.94;;;9.68;65.78
35649;BME280;21768;48.562;13.414;2023-03-26T02:51:58;96754.16;;;9.69;65.57
35649;BME280;21768;48.562;13.414;2023-03-26T02:54:24;96746.69;;;9.71;65.65
35649;BME280;21768;48.562;13.414;2023-03-26T02:56:49;96752.34;;;9.67;65.50
35649;BME280;21768;48.562;13.414;2023-03-26T02:59:14;96747.31;;;9.67;65.19
35649;BME280;21768;48.562;13.414;2023-03-26T03:01:40;96735.59;;;9.67;65.75
35649;BME280;21768;48.562;13.414;2023-03-26T03:04:10;96740.09;;;9.73;65.81
35649;BME280;21768;48.562;13.414;2023-03-26T03:06:37;96743.50;;;9.73;65.69
35649;BME280;21768;48.562;13.414;2023-03-26T03:09:04;96741.84;;;9.74;65.58
35649;BME280;21768;48.562;13.414;2023-03-26T03:11:29;96744.28;;;9.72;65.90
35649;BME280;21768;48.562;13.414;2023-03-26T03:13:55;96749.13;;;9.69;66.38
35649;BME280;21768;48.562;13.414;2023-03-26T03:16:20;96747.31;;;9.67;65.88
35649;BME280;21768;48.562;13.414;2023-03-26T03:18:46;96742.34;;;9.68;65.56
35649;BME280;21768;48.562;13.414;2023-03-26T03:21:19;96738.81;;;9.65;65.90
35649;BME280;21768;48.562;13.414;2023-03-26T03:23:44;96740.19;;;9.60;65.84
35649;BME280;21768;48.562;13.414;2023-03-26T03:26:15;96735.50;;;9.51;66.65
35649;BME280;21768;48.562;13.414;2023-03-26T03:28:41;96736.09;;;9.47;66.93
35649;BME280;21768;48.562;13.414;2023-03-26T03:31:09;96735.13;;;9.45;66.51
35649;BME280;21768;48.562;13.414;2023-03-26T03:33:34;96727.41;;;9.42;66.84
35649;BME280;21768;48.562;13.414;2023-03-26T03:36:00;96734.94;;;9.42;66.73
35649;BME280;21768;48.562;13.414;2023-03-26T03:38:25;96728.03;;;9.38;66.68
35649;BME280;21768;48.562;13.414;2023-03-26T03:40:50;96721.84;;;9.33;66.43
35649;BME280;21768;48.562;13.414;2023-03-26T03:43:18;96730.00;;;9.29;66.77
35649;BME280;21768;48.562;13.414;2023-03-26T03:45:44;96720.53;;;9.25;66.51
35649;BME280;21768;48.562;13.414;2023-03-26T03:48:09;96721.13;;;9.20;66.82
35649;BME280;21768;48.562;13.414;2023-03-26T03:50:34;96719.56;;;9.23;66.58
35649;BME280;21768;48.562;13.414;2023-03-26T03:53:00;96726.50;;;9.27;66.65
35649;BME280;21768;48.562;13.414;2023-03-26T03:55:25;96720.09;;;9.32;66.76
35649;BME280;21768;48.562;13.414;2023-03-26T03:57:52;96716.03;;;9.34;66.62
35649;BME280;21768;48.562;13.414;2023-03-26T04:00:18;96714.56;;;9.37;66.47
35649;BME280;21768;48.562;13.414;2023-03-26T04:02:43;96725.31;;;9.35;66.70
35649;BME280;21768;48.562;13.414;2023-03-26T04:05:10;96718.53;;;9.34;66.33
35649;BME280;21768;48.562;13.414;2023-03-26T04:07:37;96716.81;;;9.33;66.20
35649;BME280;21768;48.562;13.414;2023-03-26T04:10:03;96711.19;;;9.37;66.45
35649;BME280;21768;48.562;13.414;2023-03-26T04:12:29;96711.19;;;9.37;65.62
35649;BME280;21768;48.562;13.414;2023-03-26T04:14:55;96708.66;;;9.37;65.88
35649;BME280;21768;48.562;13.414;2023-03-26T04:17:21;96697.63;;;9.35;66.49
35649;BME280;21768;48.562;13.414;2023-03-26T04:19:47;96693.38;;;9.34;66.15
35649;BME280;21768;48.562;13.414;2023-03-26T04:22:15;96685.72;;;9.32;65.95
35649;BME280;21768;48.562;13.414;2023-03-26T04:24:43;96694.75;;;9.29;66.04
35649;BME280;21768;48.562;13.414;2023-03-26T04:27:12;96694.56;;;9.26;66.34
35649;BME280;21768;48.562;13.414;2023-03-26T04:29:41;96677.66;;;9.23;66.63
35649;BME280;21768;48.562;13.414;2023-03-26T04:32:17;96672.53;;;9.21;66.25
35649;BME280;21768;48.562;13.414;2023-03-26T04:34:46;96685.00;;;9.20;65.88
35649;BME280;21768;48.562;13.414;2023-03-26T04:37:19;96695.25;;;9.23;66.25
35649;BME280;21768;48.562;13.414;2023-03-26T04:39:46;96692.06;;;9.26;65.95
35649;BME280;21768;48.562;13.414;2023-03-26T04:42:11;96689.63;;;9.27;66.26
35649;BME280;21768;48.562;13.414;2023-03-26T04:44:38;96685.56;;;9.29;66.67
35649;BME280;21768;48.562;13.414;2023-03-26T04:47:06;96687.13;;;9.27;66.46
35649;BME280;21768;48.562;13.414;2023-03-26T04:49:31;96679.09;;;9.19;66.06
35649;BME280;21768;48.562;13.414;2023-03-26T04:51:57;96674.75;;;9.17;66.36
35649;BME280;21768;48.562;13.414;2023-03-26T04:54:22;96675.31;;;9.11;66.47
35649;BME280;21768;48.562;13.414;2023-03-26T04:56:56;96671.44;;;9.03;66.98
35649;BME280;21768;48.562;13.414;2023-03-26T04:59:26;96667.69;;;8.97;67.08
35649;BME280;21768;48.562;13.414;2023-03-26T05:01:55;96672.31;;;8.89;67.07
35649;BME280;21768;48.562;13.414;2023-03-26T05:04:22;96667.28;;;8.89;67.32
35649;BME280;21768;48.562;13.414;2023-03-26T05:06:48;96660.31;;;8.85;67.27
35649;BME280;21768;48.562;13.414;2023-03-26T05:09:14;96655.09;;;8.82;67.36
35649;BME280;21768;48.562;13.414;2023-03-26T05:11:40;96653.38;;;8.81;67.40
35649;BME280;21768;48.562;13.414;2023-03-26T05:14:06;96663.34;;;8.79;67.25
35649;BME280;21768;48.562;13.414;2023-03-26T05:16:32;96659.19;;;8.80;67.03
35649;BME280;21768;48.562;13.414;2023-03-26T05:18:58;96666.72;;;8.80;67.10
35649;BME280;21768;48.562;13.414;2023-03-26T05:21:23;96662.38;;;8.77;66.59
35649;BME280;21768;48.562;13.414;2023-03-26T05:23:49;96656.28;;;8.74;66.69
35649;BME280;21768;48.562;13.414;2023-03-26T05:26:14;96655.31;;;8.72;66.76
35649;BME280;21768;48.562;13.414;2023-03-26T05:28:39;96662.88;;;8.72;66.80
35649;BME280;21768;48.562;13.414;2023-03-26T05:31:05;96648.38;;;8.68;66.87
35649;BME280;21768;48.562;13.414;2023-03-26T05:33:32;96652.81;;;8.72;66.61
35649;BME280;21768;48.562;13.414;2023-03-26T05:36:03;96661.31;;;8.74;66.67
35649;BME280;21768;48.562;13.414;2023-03-26T05:38:29;96656.84;;;8.83;66.56
35649;BME280;21768;48.562;13.414;2023-03-26T05:40:59;96651.22;;;8.87;65.95
35649;BME280;21768;48.562;13.414;2023-03-26T05:43:26;96658.13;;;8.91;65.97
35649;BME280;21768;48.562;13.414;2023-03-26T05:45:51;96663.63;;;8.99;65.97
35649;BME280;21768;48.562;13.414;2023-03-26T05:48:17;96662.06;;;9.01;65.77
35649;BME280;21768;48.562;13.414;2023-03-26T05:50:42;96657.91;;;9.01;65.84
35649;BME280;21768;48.562;13.414;2023-03-26T05:53:08;96656.44;;;9.05;65.62
35649;BME280;21768;48.562;13.414;2023-03-26T05:55:33;96654.41;;;9.12;65.08
35649;BME280;21768;48.562;13.414;2023-03-26T05:57:59;96649.34;;;9.12;64.97
35649;BME280;21768;48.562;13.414;2023-03-26T06:00:25;96644.91;;;9.08;65.44
35649;BME280;21768;48.562;13.414;2023-03-26T06:02:51;96645.53;;;9.04;65.00
35649;BME280;21768;48.562;13.414;2023-03-26T06:05:19;96639.44;;;9.01;65.25
35649;BME280;21768;48.562;13.414;2023-03-26T06:07:44;96642.81;;;9.01;65.21
35649;BME280;21768;48.562;13.414;2023-03-26T06:10:10;96649.78;;;9.05;64.84
35649;BME280;21768;48.562;13.414;2023-03-26T06:12:36;96646.16;;;9.15;64.45
35649;BME280;21768;48.562;13.414;2023-03-26T06:15:01;96645.00;;;9.25;64.47
35649;BME280;21768;48.562;13.414;2023-03-26T06:17:26;96635.47;;;9.34;64.44
35649;BME280;21768;48.562;13.414;2023-03-26T06:19:52;96645.28;;;9.44;64.41
35649;BME280;21768;48.562;13.414;2023-03-26T06:22:17;96639.28;;;9.57;64.64
35649;BME280;21768;48.562;13.414;2023-03-26T06:24:42;96634.84;;;9.67;64.41
35649;BME280;21768;48.562;13.414;2023-03-26T06:27:08;96632.41;;;9.83;63.86
35649;BME280;21768;48.562;13.414;2023-03-26T06:29:33;96628.97;;;9.98;63.87
35649;BME280;21768;48.562;13.414;2023-03-26T06:31:58;96633.44;;;10.18;64.14
35649;BME280;21768;48.562;13.414;2023-03-26T06:34:24;96632.66;;;10.34;64.02
35649;BME280;21768;48.562;13.414;2023-03-26T06:36:50;96620.75;;;10.47;64.04
35649;BME280;21768;48.562;13.414;2023-03-26T06:39:17;96616.19;;;10.56;64.07
35649;BME280;21768;48.562;13.414;2023-03-26T06:41:42;96615.41;;;10.74;63.32
35649;BME280;21768;48.562;13.414;2023-03-26T06:44:08;96616.16;;;10.89;62.15
35649;BME280;21768;48.562;13.414;2023-03-26T06:46:34;96622.94;;;11.06;61.89
35649;BME280;21768;48.562;13.414;2023-03-26T06:48:59;96617.22;;;11.27;61.78
35649;BME280;21768;48.562;13.414;2023-03-26T06:51:24;96610.38;;;11.42;61.02
35649;BME280;21768;48.562;13.414;2023-03-26T06:53:50;96616.06;;;11.54;61.19
35649;BME280;21768;48.562;13.414;2023-03-26T06:56:15;96617.94;;;11.58;61.30
35649;BME280;21768;48.562;13.414;2023-03-26T06:58:41;96624.00;;;11.62;61.08
35649;BME280;21768;48.562;13.414;2023-03-26T07:01:06;96609.13;;;11.68;61.34
35649;BME280;21768;48.562;13.414;2023-03-26T07:03:32;96608.81;;;11.78;61.32
35649;BME280;21768;48.562;13.414;2023-03-26T07:05:57;96597.19;;;11.81;61.34
35649;BME280;21768;48.562;13.414;2023-03-26T07:08:22;96595.06;;;11.90;61.36
35649;BME280;21768;48.562;13.414;2023-03-26T07:10:48;96589.06;;;12.06;59.89
35649;BME280;21768;48.562;13.414;2023-03-26T07:13:13;96586.56;;;12.25;59.40
35649;BME280;21768;48.562;13.414;2023-03-26T07:15:39;96584.78;;;12.42;59.00
35649;BME280;21768;48.562;13.414;2023-03-26T07:18:04;96577.81;;;12.56;58.81
35649;BME280;21768;48.562;13.414;2023-03-26T07:20:30;96582.53;;;12.68;59.49
35649;BME280;21768;48.562;13.414;2023-03-26T07:22:56;96571.88;;;12.75;58.66
35649;BME280;21768;48.562;13.414;2023-03-26T07:25:21;96561.97;;;12.79;57.85
35649;BME280;21768;48.562;13.414;2023-03-26T07:36:40;96561.88;;;12.78;54.92
35649;BME280;21768;48.562;13.414;2023-03-26T07:45:32;96551.25;;;12.85;54.07
35649;BME280;21768;48.562;13.414;2023-03-26T07:48:02;96537.81;;;12.87;52.65
35649;BME280;21768;48.562;13.414;2023-03-26T07:50:28;96530.69;;;12.98;54.54
35649;BME280;21768;48.562;13.414;2023-03-26T07:52:55;96522.75;;;13.31;53.06
35649;BME280;21768;48.562;13.414;2023-03-26T07:55:20;96518.41;;;13.49;52.27
35649;BME280;21768;48.562;13.414;2023-03-26T08:00:55;96499.25;;;14.00;50.79
35649;BME280;21768;48.562;13.414;2023-03-26T08:03:41;96502.06;;;14.08;52.31
35649;BME280;21768;48.562;13.414;2023-03-26T08:06:30;96503.69;;;14.06;50.59
35649;BME280;21768;48.562;13.414;2023-03-26T08:09:05;96500.13;;;14.01;50.86
35649;BME280;21768;48.562;13.414;2023-03-26T08:11:56;96504.97;;;14.18;52.17
35649;BME280;21768;48.562;13.414;2023-03-26T08:20:06;96484.69;;;14.18;50.65
35649;BME280;21768;48.562;13.414;2023-03-26T08:22:45;96482.22;;;14.20;50.33
35649;BME280;21768;48.562;13.414;2023-03-26T08:25:27;96486.56;;;14.46;49.39
35649;BME280;21768;48.562;13.414;2023-03-26T08:30:44;96468.84;;;14.48;47.64
35649;BME280;21768;48.562;13.414;2023-03-26T08:33:17;96462.69;;;14.41;47.45
35649;BME280;21768;48.562;13.414;2023-03-26T08:35:44;96464.53;;;14.45;48.10
35649;BME280;21768;48.562;13.414;2023-03-26T08:38:12;96445.53;;;14.58;47.24
35649;BME280;21768;48.562;13.414;2023-03-26T08:41:21;96441.63;;;14.44;48.12
35649;BME280;21768;48.562;13.414;2023-03-26T08:44:21;96443.06;;;14.61;47.63
35649;BME280;21768;48.562;13.414;2023-03-26T08:52:40;96418.19;;;14.27;48.72
35649;BME280;21768;48.562;13.414;2023-03-26T09:05:02;96416.59;;;14.29;48.41
35649;BME280;21768;48.562;13.414;2023-03-26T09:24:08;96380.97;;;14.02;48.13
35649;BME280;21768;48.562;13.414;2023-03-26T09:26:59;96373.66;;;13.87;48.43
35649;BME280;21768;48.562;13.414;2023-03-26T09:29:52;96365.88;;;14.05;48.21
35649;BME280;21768;48.562;13.414;2023-03-26T09:40:46;96347.31;;;13.82;47.33
35649;BME280;21768;48.562;13.414;2023-03-26T10:14:30;96283.44;;;13.45;48.39
35649;BME280;21768;48.562;13.414;2023-03-26T10:28:18;96240.88;;;13.35;47.92
35649;BME280;21768;48.562;13.414;2023-03-26T10:31:42;96242.91;;;13.45;48.06
35649;BME280;21768;48.562;13.414;2023-03-26T10:40:22;96258.06;;;13.92;47.00
35649;BME280;21768;48.562;13.414;2023-03-26T10:51:22;96266.75;;;13.50;45.55
35649;BME280;21768;48.562;13.414;2023-03-26T10:57:05;96277.91;;;13.31;47.37
35649;BME280;21768;48.562;13.414;2023-03-26T10:59:32;96272.16;;;13.35;48.34
35649;BME280;21768;48.562;13.414;2023-03-26T11:02:25;96266.97;;;13.32;47.49
35649;BME280;21768;48.562;13.414;2023-03-26T11:10:07;96267.00;;;12.67;48.73
35649;BME280;21768;48.562;13.414;2023-03-26T11:12:37;96274.09;;;12.53;48.58
35649;BME280;21768;48.562;13.414;2023-03-26T11:23:21;96274.84;;;12.09;50.85
35649;BME280;21768;48.562;13.414;2023-03-26T11:25:55;96276.44;;;12.07;52.08
35649;BME280;21768;48.562;13.414;2023-03-26T11:28:33;96276.19;;;12.01;53.78
35649;BME280;21768;48.562;13.414;2023-03-26T11:33:45;96267.19;;;11.86;56.32
35649;BME280;21768;48.562;13.414;2023-03-26T11:36:15;96265.69;;;11.91;57.92
35649;BME280;21768;48.562;13.414;2023-03-26T11:38:52;96270.25;;;11.79;57.81
35649;BME280;21768;48.562;13.414;2023-03-26T11:41:25;96263.41;;;11.77;59.44
35649;BME280;21768;48.562;13.414;2023-03-26T11:43:58;96272.25;;;11.86;60.07
35649;BME280;21768;48.562;13.414;2023-03-26T11:46:26;96250.41;;;11.88;60.28
35649;BME280;21768;48.562;13.414;2023-03-26T11:48:56;96260.09;;;11.99;60.21
35649;BME280;21768;48.562;13.414;2023-03-26T11:51:30;96262.75;;;12.02;59.68
35649;BME280;21768;48.562;13.414;2023-03-26T11:53:58;96258.44;;;11.99;59.70
35649;BME280;21768;48.562;13.414;2023-03-26T12:07:16;96236.59;;;12.22;61.31
35649;BME280;21768;48.562;13.414;2023-03-26T12:09:52;96216.38;;;12.22;60.93
35649;BME280;21768;48.562;13.414;2023-03-26T12:12:19;96213.16;;;12.26;61.26
35649;BME280;21768;48.562;13.414;2023-03-26T12:14:46;96209.97;;;12.30;62.08
35649;BME280;21768;48.562;13.414;2023-03-26T12:17:14;96215.00;;;12.30;61.50
35649;BME280;21768;48.562;13.414;2023-03-26T12:19:49;96204.78;;;12.27;61.28
35649;BME280;21768;48.562;13.414;2023-03-26T12:25:20;96212.03;;;12.40;60.83
35649;BME280;21768;48.562;13.414;2023-03-26T12:27:50;96213.06;;;12.45;61.59
35649;BME280;21768;48.562;13.414;2023-03-26T12:30:22;96191.03;;;12.43;62.19
35649;BME280;21768;48.562;13.414;2023-03-26T12:32:51;96186.97;;;12.46;62.27
35649;BME280;21768;48.562;13.414;2023-03-26T12:35:25;96182.66;;;12.44;62.08
35649;BME280;21768;48.562;13.414;2023-03-26T12:37:53;96181.91;;;12.46;62.37
35649;BME280;21768;48.562;13.414;2023-03-26T12:42:58;96169.59;;;12.78;61.94
35649;BME280;21768;48.562;13.414;2023-03-26T12:45:30;96147.63;;;12.77;62.37
35649;BME280;21768;48.562;13.414;2023-03-26T12:47:57;96153.44;;;12.74;61.97
35649;BME280;21768;48.562;13.414;2023-03-26T12:50:31;96162.56;;;12.71;60.87
35649;BME280;21768;48.562;13.414;2023-03-26T12:53:14;96167.50;;;12.68;60.99
35649;BME280;21768;48.562;13.414;2023-03-26T12:56:04;96172.31;;;12.60;61.03
35649;BME280;21768;48.562;13.414;2023-03-26T12:58:45;96174.78;;;12.58;60.75
35649;BME280;21768;48.562;13.414;2023-03-26T13:09:37;96165.97;;;12.49;63.06
35649;BME280;21768;48.562;13.414;2023-03-26T13:17:41;96191.78;;;11.97;62.67
35649;BME280;21768;48.562;13.414;2023-03-26T13:20:18;96172.91;;;11.89;64.78
35649;BME280;21768;48.562;13.414;2023-03-26T13:23:11;96178.50;;;11.80;63.41
35649;BME280;21768;48.562;13.414;2023-03-26T13:25:50;96171.16;;;11.86;62.85
35649;BME280;21768;48.562;13.414;2023-03-26T13:28:22;96167.38;;;11.98;63.10
35649;BME280;21768;48.562;13.414;2023-03-26T13:31:31;96169.91;;;11.98;63.01
35649;BME280;21768;48.562;13.414;2023-03-26T13:36:47;96152.31;;;11.78;64.03
35649;BME280;21768;48.562;13.414;2023-03-26T13:44:55;96126.16;;;11.78;63.73
35649;BME280;21768;48.562;13.414;2023-03-26T13:47:30;96122.44;;;11.90;63.48
35649;BME280;21768;48.562;13.414;2023-03-26T13:50:32;96112.25;;;11.87;63.54
35649;BME280;21768;48.562;13.414;2023-03-26T13:53:05;96098.34;;;11.99;63.49
35649;BME280;21768;48.562;13.414;2023-03-26T13:55:39;96095.81;;;11.99;63.45
35649;BME280;21768;48.562;13.414;2023-03-26T14:05:54;96094.13;;;12.21;61.45
35649;BME280;21768;48.562;13.414;2023-03-26T14:10:54;96094.66;;;12.13;62.39
35649;BME280;21768;48.562;13.414;2023-03-26T14:13:32;96090.63;;;12.18;61.99
35649;BME280;21768;48.562;13.414;2023-03-26T14:16:34;96091.31;;;12.14;61.43
35649;BME280;21768;48.562;13.414;2023-03-26T14:25:20;96081.16;;;12.35;61.68
35649;BME280;21768;48.562;13.414;2023-03-26T14:41:12;96073.63;;;12.36;61.18
35649;BME280;21768;48.562;13.414;2023-03-26T14:44:14;96065.66;;;12.49;61.75
35649;BME280;21768;48.562;13.414;2023-03-26T14:55:05;96054.50;;;12.44;61.96
35649;BME280;21768;48.562;13.414;2023-03-26T14:58:08;96060.06;;;12.34;60.95
35649;BME280;21768;48.562;13.414;2023-03-26T15:28:25;96010.72;;;11.99;61.09
35649;BME280;21768;48.562;13.414;2023-03-26T15:39:51;96030.44;;;12.08;61.10
35649;BME280;21768;48.562;13.414;2023-03-26T15:45:31;96025.31;;;12.06;61.23
35649;BME280;21768;48.562;13.414;2023-03-26T16:04:42;96016.41;;;11.93;60.00
35649;BME280;21768;48.562;13.414;2023-03-26T16:15:28;96022.91;;;11.66;59.20
35649;BME280;21768;48.562;13.414;2023-03-26T16:26:22;96006.09;;;11.67;58.84
35649;BME280;21768;48.562;13.414;2023-03-26T16:31:22;96011.75;;;11.59;58.32
35649;BME280;21768;48.562;13.414;2023-03-26T16:57:22;96029.16;;;11.10;59.13
35649;BME280;21768;48.562;13.414;2023-03-26T17:00:03;96031.56;;;11.07;59.03
35649;BME280;21768;48.562;13.414;2023-03-26T17:05:23;96038.06;;;11.02;59.70
35649;BME280;21768;48.562;13.414;2023-03-26T17:08:02;96026.13;;;10.98;60.41
35649;BME280;21768;48.562;13.414;2023-03-26T17:16:24;96032.34;;;10.85;60.53
35649;BME280;21768;48.562;13.414;2023-03-26T17:18:59;96025.38;;;10.80;60.28
35649;BME280;21768;48.562;13.414;2023-03-26T17:21:53;96020.06;;;10.74;60.46
35649;BME280;21768;48.562;13.414;2023-03-26T17:27:20;96019.13;;;10.72;60.08
35649;BME280;21768;48.562;13.414;2023-03-26T17:30:28;96026.72;;;10.72;60.53
35649;BME280;21768;48.562;13.414;2023-03-26T17:38:06;96029.41;;;10.55;61.13
35649;BME280;21768;48.562;13.414;2023-03-26T17:40:57;96028.25;;;10.49;61.37
35649;BME280;21768;48.562;13.414;2023-03-26T17:43:41;96025.53;;;10.44;61.55
35649;BME280;21768;48.562;13.414;2023-03-26T17:46:40;96015.31;;;10.41;61.71
35649;BME280;21768;48.562;13.414;2023-03-26T17:57:15;96013.00;;;10.27;61.77
35649;BME280;21768;48.562;13.414;2023-03-26T17:59:44;96016.19;;;10.22;62.03
35649;BME280;21768;48.562;13.414;2023-03-26T18:02:15;96017.72;;;10.19;62.13
35649;BME280;21768;48.562;13.414;2023-03-26T18:04:44;96010.78;;;10.15;62.21
35649;BME280;21768;48.562;13.414;2023-03-26T18:12:48;95991.81;;;10.04;63.02
35649;BME280;21768;48.562;13.414;2023-03-26T18:17:46;95983.47;;;10.05;62.83
35649;BME280;21768;48.562;13.414;2023-03-26T18:20:21;95981.59;;;10.01;62.66
35649;BME280;21768;48.562;13.414;2023-03-26T18:22:47;95977.28;;;9.98;62.74
35649;BME280;21768;48.562;13.414;2023-03-26T18:25:25;95986.38;;;9.95;62.82
35649;BME280;21768;48.562;13.414;2023-03-26T18:27:53;95994.72;;;9.94;63.36
35649;BME280;21768;48.562;13.414;2023-03-26T18:30:22;95996.44;;;9.95;63.77
35649;BME280;21768;48.562;13.414;2023-03-26T18:33:32;96001.47;;;9.95;63.68
35649;BME280;21768;48.562;13.414;2023-03-26T18:35:41;96004.81;;;9.94;63.56
35649;BME280;21768;48.562;13.414;2023-03-26T18:38:20;96004.66;;;9.90;63.40
35649;BME280;21768;48.562;13.414;2023-03-26T18:40:48;95991.03;;;9.85;63.82
35649;BME280;21768;48.562;13.414;2023-03-26T18:43:16;95991.69;;;9.81;64.11
35649;BME280;21768;48.562;13.414;2023-03-26T18:45:47;95989.00;;;9.78;64.42
35649;BME280;21768;48.562;13.414;2023-03-26T18:50:43;95991.91;;;9.68;63.77
35649;BME280;21768;48.562;13.414;2023-03-26T18:55:47;95988.06;;;9.57;63.81
35649;BME280;21768;48.562;13.414;2023-03-26T18:58:32;95975.19;;;9.51;63.90
35649;BME280;21768;48.562;13.414;2023-03-26T19:01:06;95982.59;;;9.48;63.80
35649;BME280;21768;48.562;13.414;2023-03-26T19:03:37;95965.63;;;9.44;64.09
35649;BME280;21768;48.562;13.414;2023-03-26T19:06:06;95952.78;;;9.38;64.22
35649;BME280;21768;48.562;13.414;2023-03-26T19:08:35;95956.88;;;9.36;64.28
35649;BME280;21768;48.562;13.414;2023-03-26T19:11:05;95955.16;;;9.35;64.46
35649;BME280;21768;48.562;13.414;2023-03-26T19:13:38;95956.88;;;9.36;64.50
35649;BME280;21768;48.562;13.414;2023-03-26T19:16:27;95976.53;;;9.44;64.50
35649;BME280;21768;48.562;13.414;2023-03-26T19:19:01;95976.69;;;9.47;64.25
35649;BME280;21768;48.562;13.414;2023-03-26T19:21:28;95981.00;;;9.50;64.17
35649;BME280;21768;48.562;13.414;2023-03-26T19:23:54;95972.72;;;9.52;64.29
35649;BME280;21768;48.562;13.414;2023-03-26T19:26:20;95971.22;;;9.56;64.39
35649;BME280;21768;48.562;13.414;2023-03-26T19:28:51;95972.38;;;9.63;64.49
35649;BME280;21768;48.562;13.414;2023-03-26T19:31:34;95964.75;;;9.61;64.50
35649;BME280;21768;48.562;13.414;2023-03-26T19:37:01;95952.47;;;9.69;64.56